createdAt,value
2018-07-09T00:00:35.153Z,1023.76
2018-07-09T00:01:44.012Z,1023.78
2018-07-09T00:02:52.871Z,1023.75
2018-07-09T00:04:01.732Z,1023.75
2018-07-09T00:05:10.593Z,1023.75
2018-07-09T00:06:19.537Z,1023.74
2018-07-09T00:07:28.332Z,1023.74
2018-07-09T00:08:37.191Z,1023.71
2018-07-09T00:09:46.050Z,1023.7
2018-07-09T00:10:55.197Z,1023.68
2018-07-09T00:12:04.057Z,1023.68
2018-07-09T00:13:12.915Z,1023.69
2018-07-09T00:14:22.055Z,1023.63
2018-07-09T00:15:30.916Z,1023.66
2018-07-09T00:16:39.775Z,1023.63
2018-07-09T00:17:49.013Z,1023.62
2018-07-09T00:18:57.872Z,1023.63
2018-07-09T00:20:06.732Z,1023.68
2018-07-09T00:21:15.871Z,1023.69
2018-07-09T00:22:24.729Z,1023.72
2018-07-09T00:23:33.588Z,1023.66
2018-07-09T00:24:42.446Z,1023.7
2018-07-09T00:25:51.310Z,1023.7
2018-07-09T00:27:00.167Z,1023.73
2018-07-09T00:28:09.306Z,1023.75
2018-07-09T00:29:18.792Z,1023.72
2018-07-09T00:30:27.652Z,1023.72
2018-07-09T00:31:36.518Z,1023.69
2018-07-09T00:32:45.379Z,1023.68
2018-07-09T00:33:54.240Z,1023.7
2018-07-09T00:35:03.485Z,1023.75
2018-07-09T00:36:12.343Z,1023.72
2018-07-09T00:37:21.480Z,1023.71
2018-07-09T00:38:30.341Z,1023.7
2018-07-09T00:39:39.203Z,1023.75
2018-07-09T00:40:48.063Z,1023.73
2018-07-09T00:41:57.198Z,1023.7
2018-07-09T00:43:06.058Z,1023.7
2018-07-09T00:44:15.472Z,1023.69
2018-07-09T00:45:24.334Z,1023.65
2018-07-09T00:46:33.297Z,1023.62
2018-07-09T00:47:42.154Z,1023.63
2018-07-09T00:48:51.293Z,1023.62
2018-07-09T00:50:00.436Z,1023.57
2018-07-09T00:51:09.584Z,1023.66
2018-07-09T00:52:18.444Z,1023.62
2018-07-09T00:53:27.304Z,1023.69
2018-07-09T00:54:36.214Z,1023.65
2018-07-09T00:55:45.078Z,1023.64
2018-07-09T00:56:54.416Z,1023.64
2018-07-09T00:58:03.426Z,1023.63
2018-07-09T00:59:12.560Z,1023.66
2018-07-09T01:00:21.419Z,1023.7
2018-07-09T01:01:30.562Z,1023.71
2018-07-09T01:02:39.693Z,1023.69
2018-07-09T01:03:48.904Z,1023.69
2018-07-09T01:04:57.768Z,1023.69
2018-07-09T01:06:06.904Z,1023.7
2018-07-09T01:07:15.766Z,1023.69
2018-07-09T01:08:24.626Z,1023.71
2018-07-09T01:09:33.487Z,1023.75
2018-07-09T01:10:42.620Z,1023.7
2018-07-09T01:11:51.479Z,1023.67
2018-07-09T01:13:00.340Z,1023.69
2018-07-09T01:14:09.205Z,1023.66
2018-07-09T01:15:18.338Z,1023.62
2018-07-09T01:16:27.198Z,1023.66
2018-07-09T01:17:36.333Z,1023.62
2018-07-09T01:18:45.194Z,1023.63
2018-07-09T01:19:54.053Z,1023.58
2018-07-09T01:21:03.540Z,1023.61
2018-07-09T01:22:12.677Z,1023.59
2018-07-09T01:23:21.536Z,1023.56
2018-07-09T01:24:30.951Z,1023.57
2018-07-09T01:25:39.815Z,1023.56
2018-07-09T01:26:48.827Z,1023.57
2018-07-09T01:27:57.691Z,1023.5
2018-07-09T01:29:06.549Z,1023.53
2018-07-09T01:30:15.411Z,1023.46
2018-07-09T01:31:24.552Z,1023.46
2018-07-09T01:32:33.688Z,1023.46
2018-07-09T01:33:42.823Z,1023.55
2018-07-09T01:34:51.963Z,1023.5
2018-07-09T01:36:00.825Z,1023.55
2018-07-09T01:37:09.962Z,1023.56
2018-07-09T01:38:19.253Z,1023.54
2018-07-09T01:39:28.110Z,1023.49
2018-07-09T01:40:36.968Z,1023.54
2018-07-09T01:41:46.107Z,1023.57
2018-07-09T01:42:54.967Z,1023.55
2018-07-09T01:44:03.829Z,1023.56
2018-07-09T01:45:12.688Z,1023.56
2018-07-09T01:46:21.547Z,1023.53
2018-07-09T01:47:30.958Z,1023.56
2018-07-09T01:48:39.815Z,1023.55
2018-07-09T01:49:48.674Z,1023.53
2018-07-09T01:50:57.806Z,1023.55
2018-07-09T01:52:06.666Z,1023.54
2018-07-09T01:53:15.525Z,1023.56
2018-07-09T01:54:24.660Z,1023.52
2018-07-09T01:55:33.517Z,1023.53
2018-07-09T01:56:42.377Z,1023.54
2018-07-09T01:57:51.235Z,1023.58
2018-07-09T01:59:00.371Z,1023.59
2018-07-09T02:00:09.506Z,1023.57
2018-07-09T02:01:18.519Z,1023.57
2018-07-09T02:02:27.379Z,1023.58
2018-07-09T02:03:36.242Z,1023.58
2018-07-09T02:04:45.103Z,1023.53
2018-07-09T02:05:53.963Z,1023.51
2018-07-09T02:07:03.251Z,1023.48
2018-07-09T02:08:12.112Z,1023.48
2018-07-09T02:09:21.249Z,1023.46
2018-07-09T02:10:30.110Z,1023.45
2018-07-09T02:11:38.967Z,1023.51
2018-07-09T02:12:48.477Z,1023.49
2018-07-09T02:13:57.334Z,1023.45
2018-07-09T02:15:06.194Z,1023.49
2018-07-09T02:16:15.059Z,1023.47
2018-07-09T02:17:23.914Z,1023.48
2018-07-09T02:18:33.126Z,1023.48
2018-07-09T02:19:41.984Z,1023.42
2018-07-09T02:20:50.844Z,1023.42
2018-07-09T02:21:59.705Z,1023.42
2018-07-09T02:23:08.837Z,1023.43
2018-07-09T02:24:17.697Z,1023.46
2018-07-09T02:25:26.560Z,1023.42
2018-07-09T02:26:35.700Z,1023.4
2018-07-09T02:27:45.128Z,1023.41
2018-07-09T02:28:53.979Z,1023.42
2018-07-09T02:30:03.114Z,1023.4
2018-07-09T02:31:11.976Z,1023.41
2018-07-09T02:32:20.838Z,1023.43
2018-07-09T02:33:29.981Z,1023.41
2018-07-09T02:34:39.169Z,1023.39
2018-07-09T02:35:47.982Z,1023.43
2018-07-09T02:36:57.122Z,1023.42
2018-07-09T02:38:06.535Z,1023.4
2018-07-09T02:39:15.670Z,1023.33
2018-07-09T02:40:25.100Z,1023.39
2018-07-09T02:41:34.061Z,1023.35
2018-07-09T02:42:43.253Z,1023.33
2018-07-09T02:43:52.117Z,1023.37
2018-07-09T02:45:01.253Z,1023.38
2018-07-09T02:46:10.665Z,1023.34
2018-07-09T02:47:20.511Z,1023.39
2018-07-09T02:48:29.373Z,1023.36
2018-07-09T02:49:38.236Z,1023.34
2018-07-09T02:50:47.666Z,1023.33
2018-07-09T02:51:57.089Z,1023.33
2018-07-09T02:53:06.856Z,1023.32
2018-07-09T02:54:15.719Z,1023.28
2018-07-09T02:55:24.861Z,1023.26
2018-07-09T02:56:33.732Z,1023.27
2018-07-09T02:57:42.867Z,1023.24
2018-07-09T02:58:52.439Z,1023.23
2018-07-09T03:00:01.580Z,1023.24
2018-07-09T03:01:10.669Z,1023.18
2018-07-09T03:02:19.815Z,1023.12
2018-07-09T03:03:28.677Z,1023.16
2018-07-09T03:04:37.817Z,1023.14
2018-07-09T03:05:46.682Z,1023.18
2018-07-09T03:06:55.818Z,1023.14
2018-07-09T03:08:04.677Z,1023.18
2018-07-09T03:09:13.540Z,1023.18
2018-07-09T03:10:22.750Z,1023.22
2018-07-09T03:11:31.613Z,1023.21
2018-07-09T03:12:40.475Z,1023.27
2018-07-09T03:13:49.622Z,1023.25
2018-07-09T03:14:58.478Z,1023.26
2018-07-09T03:16:07.766Z,1023.33
2018-07-09T03:17:16.638Z,1023.34
2018-07-09T03:18:25.771Z,1023.33
2018-07-09T03:19:34.631Z,1023.32
2018-07-09T03:20:43.491Z,1023.34
2018-07-09T03:21:52.784Z,1023.35
2018-07-09T03:23:02.211Z,1023.3
2018-07-09T03:24:11.628Z,1023.34
2018-07-09T03:25:20.486Z,1023.34
2018-07-09T03:26:29.629Z,1023.38
2018-07-09T03:27:38.486Z,1023.41
2018-07-09T03:28:47.622Z,1023.4
2018-07-09T03:29:56.482Z,1023.41
2018-07-09T03:31:05.901Z,1023.47
2018-07-09T03:32:15.041Z,1023.44
2018-07-09T03:33:23.900Z,1023.44
2018-07-09T03:34:32.758Z,1023.41
2018-07-09T03:35:41.618Z,1023.43
2018-07-09T03:36:50.487Z,1023.37
2018-07-09T03:37:59.341Z,1023.45
2018-07-09T03:39:08.629Z,1023.46
2018-07-09T03:40:17.486Z,1023.45
2018-07-09T03:41:26.345Z,1023.43
2018-07-09T03:42:35.203Z,1023.43
2018-07-09T03:43:44.063Z,1023.39
2018-07-09T03:44:52.926Z,1023.43
2018-07-09T03:46:02.060Z,1023.4
2018-07-09T03:47:10.923Z,1023.36
2018-07-09T03:48:19.788Z,1023.41
2018-07-09T03:49:28.646Z,1023.39
2018-07-09T03:50:37.656Z,1023.41
2018-07-09T03:51:46.795Z,1023.42
2018-07-09T03:52:55.658Z,1023.39
2018-07-09T03:54:04.519Z,1023.39
2018-07-09T03:55:13.376Z,1023.36
2018-07-09T03:56:22.235Z,1023.37
2018-07-09T03:57:31.098Z,1023.35
2018-07-09T03:58:40.517Z,1023.36
2018-07-09T03:59:49.374Z,1023.4
2018-07-09T04:00:58.233Z,1023.41
2018-07-09T04:02:07.263Z,1023.39
2018-07-09T04:03:16.112Z,1023.43
2018-07-09T04:04:25.264Z,1023.45
2018-07-09T04:05:34.679Z,1023.46
2018-07-09T04:06:43.812Z,1023.46
2018-07-09T04:07:52.824Z,1023.47
2018-07-09T04:09:01.685Z,1023.48
2018-07-09T04:10:10.548Z,1023.46
2018-07-09T04:11:19.408Z,1023.47
2018-07-09T04:12:28.267Z,1023.46
2018-07-09T04:13:37.753Z,1023.44
2018-07-09T04:14:46.675Z,1023.44
2018-07-09T04:15:56.024Z,1023.43
2018-07-09T04:17:05.441Z,1023.48
2018-07-09T04:18:14.294Z,1023.47
2018-07-09T04:19:23.514Z,1023.42
2018-07-09T04:20:32.366Z,1023.41
2018-07-09T04:21:41.783Z,1023.38
2018-07-09T04:22:50.918Z,1023.36
2018-07-09T04:23:59.780Z,1023.38
2018-07-09T04:25:08.790Z,1023.34
2018-07-09T04:26:17.722Z,1023.35
2018-07-09T04:27:26.514Z,1023.37
2018-07-09T04:28:35.372Z,1023.35
2018-07-09T04:29:44.506Z,1023.33
2018-07-09T04:30:53.640Z,1023.35
2018-07-09T04:32:02.502Z,1023.33
2018-07-09T04:33:11.359Z,1023.35
2018-07-09T04:34:20.505Z,1023.41
2018-07-09T04:35:29.369Z,1023.42
2018-07-09T04:36:38.328Z,1023.42
2018-07-09T04:37:47.202Z,1023.44
2018-07-09T04:38:56.048Z,1023.45
2018-07-09T04:40:04.911Z,1023.39
2018-07-09T04:41:14.050Z,1023.41
2018-07-09T04:42:23.260Z,1023.41
2018-07-09T04:43:32.125Z,1023.43
2018-07-09T04:44:40.989Z,1023.4
2018-07-09T04:45:49.849Z,1023.44
2018-07-09T04:46:58.710Z,1023.48
2018-07-09T04:48:07.998Z,1023.42
2018-07-09T04:49:16.857Z,1023.36
2018-07-09T04:50:25.717Z,1023.36
2018-07-09T04:51:34.576Z,1023.34
2018-07-09T04:52:43.439Z,1023.34
2018-07-09T04:53:52.443Z,1023.27
2018-07-09T04:55:01.307Z,1023.27
2018-07-09T04:56:10.170Z,1023.29
2018-07-09T04:57:19.311Z,1023.24
2018-07-09T04:58:28.171Z,1023.26
2018-07-09T04:59:37.384Z,1023.21
2018-07-09T05:00:46.241Z,1023.23
2018-07-09T05:01:55.101Z,1023.2
2018-07-09T05:03:03.965Z,1023.24
2018-07-09T05:04:13.111Z,1023.26
2018-07-09T05:05:22.262Z,1023.27
2018-07-09T05:06:31.126Z,1023.27
2018-07-09T05:07:40.267Z,1023.18
2018-07-09T05:08:49.405Z,1023.24
2018-07-09T05:09:58.270Z,1023.24
2018-07-09T05:11:07.488Z,1023.25
2018-07-09T05:12:16.344Z,1023.29
2018-07-09T05:13:25.205Z,1023.33
2018-07-09T05:14:34.344Z,1023.34
2018-07-09T05:15:43.207Z,1023.31
2018-07-09T05:16:52.068Z,1023.32
2018-07-09T05:18:00.928Z,1023.29
2018-07-09T05:19:09.790Z,1023.31
2018-07-09T05:20:18.651Z,1023.31
2018-07-09T05:21:27.515Z,1023.28
2018-07-09T05:22:36.758Z,1023.29
2018-07-09T05:23:45.611Z,1023.26
2018-07-09T05:24:54.471Z,1023.3
2018-07-09T05:26:03.332Z,1023.27
2018-07-09T05:27:12.196Z,1023.29
2018-07-09T05:28:21.148Z,1023.3
2018-07-09T05:29:30.013Z,1023.29
2018-07-09T05:30:38.874Z,1023.25
2018-07-09T05:31:47.736Z,1023.29
2018-07-09T05:32:56.595Z,1023.25
2018-07-09T05:34:05.808Z,1023.28
2018-07-09T05:35:14.678Z,1023.32
2018-07-09T05:36:23.814Z,1023.27
2018-07-09T05:37:32.675Z,1023.28
2018-07-09T05:38:41.537Z,1023.3
2018-07-09T05:39:50.826Z,1023.27
2018-07-09T05:40:59.688Z,1023.28
2018-07-09T05:42:08.825Z,1023.26
2018-07-09T05:43:17.686Z,1023.27
2018-07-09T05:44:26.545Z,1023.28
2018-07-09T05:45:35.408Z,1023.17
2018-07-09T05:46:44.281Z,1023.18
2018-07-09T05:47:53.415Z,1023.21
2018-07-09T05:49:02.561Z,1023.15
2018-07-09T05:50:11.424Z,1023.19
2018-07-09T05:51:20.286Z,1023.23
2018-07-09T05:52:29.149Z,1023.19
2018-07-09T05:53:38.284Z,1023.23
2018-07-09T05:54:47.420Z,1023.23
2018-07-09T05:55:56.280Z,1023.19
2018-07-09T05:57:05.296Z,1023.12
2018-07-09T05:58:14.157Z,1023.13
2018-07-09T05:59:23.298Z,1023.06
2018-07-09T06:00:32.161Z,1023.11
2018-07-09T06:01:41.024Z,1023.11
2018-07-09T06:02:49.992Z,1023.05
2018-07-09T06:03:58.851Z,1023.07
2018-07-09T06:05:08.335Z,1023.11
2018-07-09T06:06:17.754Z,1023.15
2018-07-09T06:07:26.616Z,1023.11
2018-07-09T06:08:35.477Z,1023.1
2018-07-09T06:09:44.622Z,1023.13
2018-07-09T06:10:53.480Z,1023.09
2018-07-09T06:12:02.344Z,1023.09
2018-07-09T06:13:11.496Z,1023.06
2018-07-09T06:14:20.706Z,1023.07
2018-07-09T06:15:29.572Z,1023.08
2018-07-09T06:16:38.429Z,1023.08
2018-07-09T06:17:47.566Z,1023.12
2018-07-09T06:18:56.757Z,1023.08
2018-07-09T06:20:05.619Z,1023.11
2018-07-09T06:21:14.481Z,1023.14
2018-07-09T06:22:23.345Z,1023.09
2018-07-09T06:23:32.486Z,1023.16
2018-07-09T06:24:41.631Z,1023.16
2018-07-09T06:25:50.766Z,1023.1
2018-07-09T06:26:59.630Z,1023.08
2018-07-09T06:28:08.773Z,1023.09
2018-07-09T06:29:17.633Z,1023.05
2018-07-09T06:30:26.642Z,1023.04
2018-07-09T06:31:35.571Z,1023.04
2018-07-09T06:32:44.653Z,1023.02
2018-07-09T06:33:53.515Z,1023.04
2018-07-09T06:35:02.379Z,1023.04
2018-07-09T06:36:11.343Z,1023.07
2018-07-09T06:37:20.757Z,1023.1
2018-07-09T06:38:29.894Z,1023.1
2018-07-09T06:39:39.031Z,1023.08
2018-07-09T06:40:47.894Z,1023.08
2018-07-09T06:41:57.109Z,1023.05
2018-07-09T06:43:06.256Z,1023.02
2018-07-09T06:44:15.394Z,1023.02
2018-07-09T06:45:24.257Z,1023.05
2018-07-09T06:46:33.118Z,1023
2018-07-09T06:47:42.133Z,1023.01
2018-07-09T06:48:51.558Z,1022.98
2018-07-09T06:50:00.458Z,1022.98
2018-07-09T06:51:09.668Z,1023
2018-07-09T06:52:18.808Z,1023.04
2018-07-09T06:53:27.672Z,1023.06
2018-07-09T06:54:36.534Z,1023.09
2018-07-09T06:55:45.396Z,1023.07
2018-07-09T06:56:54.918Z,1023.04
2018-07-09T06:58:03.785Z,1023.01
2018-07-09T06:59:12.927Z,1023
2018-07-09T07:00:21.787Z,1023
2018-07-09T07:01:30.927Z,1023.04
2018-07-09T07:02:39.789Z,1023.03
2018-07-09T07:03:48.654Z,1023.05
2018-07-09T07:04:57.615Z,1023.03
2018-07-09T07:06:06.769Z,1023.05
2018-07-09T07:07:16.187Z,1023.04
2018-07-09T07:08:25.049Z,1023.03
2018-07-09T07:09:33.912Z,1022.99
2018-07-09T07:10:42.926Z,1022.97
2018-07-09T07:11:51.788Z,1023.06
2018-07-09T07:13:00.929Z,1023.01
2018-07-09T07:14:09.789Z,1023.02
2018-07-09T07:15:18.655Z,1023
2018-07-09T07:16:27.524Z,1023.01
2018-07-09T07:17:36.378Z,1023.08
2018-07-09T07:18:45.519Z,1023.01
2018-07-09T07:19:54.383Z,1023.08
2018-07-09T07:21:03.543Z,1023.04
2018-07-09T07:22:12.994Z,1023.05
2018-07-09T07:23:21.855Z,1023.08
2018-07-09T07:24:30.718Z,1023.02
2018-07-09T07:25:39.585Z,1023.09
2018-07-09T07:26:48.724Z,1023.08
2018-07-09T07:27:58.145Z,1023.09
2018-07-09T07:29:07.015Z,1023.06
2018-07-09T07:30:15.877Z,1023.02
2018-07-09T07:31:24.740Z,1023.04
2018-07-09T07:32:34.159Z,1023.05
2018-07-09T07:33:43.460Z,1023.02
2018-07-09T07:34:52.608Z,1023.03
2018-07-09T07:36:01.751Z,1023.04
2018-07-09T07:37:10.620Z,1023.01
2018-07-09T07:38:19.480Z,1023.01
2018-07-09T07:39:28.522Z,1022.96
2018-07-09T07:40:37.672Z,1023.03
2018-07-09T07:41:46.538Z,1023.01
2018-07-09T07:42:55.404Z,1023
2018-07-09T07:44:04.267Z,1023.01
2018-07-09T07:45:13.133Z,1022.99
2018-07-09T07:46:21.997Z,1022.99
2018-07-09T07:47:31.423Z,1023
2018-07-09T07:48:40.292Z,1023.03
2018-07-09T07:49:49.428Z,1022.98
2018-07-09T07:50:58.291Z,1022.92
2018-07-09T07:52:07.154Z,1022.99
2018-07-09T07:53:16.021Z,1022.9
2018-07-09T07:54:24.886Z,1022.85
2018-07-09T07:55:34.032Z,1022.81
2018-07-09T07:56:43.046Z,1022.82
2018-07-09T07:57:51.913Z,1022.79
2018-07-09T07:59:00.776Z,1022.75
2018-07-09T08:00:09.641Z,1022.78
2018-07-09T08:01:18.506Z,1022.81
2018-07-09T08:02:27.808Z,1022.77
2018-07-09T08:03:36.949Z,1022.79
2018-07-09T08:04:45.811Z,1022.82
2018-07-09T08:05:54.678Z,1022.83
2018-07-09T08:07:03.817Z,1022.79
2018-07-09T08:08:13.031Z,1022.8
2018-07-09T08:09:21.978Z,1022.79
2018-07-09T08:10:32.112Z,1022.81
2018-07-09T08:11:48.562Z,1022.88
2018-07-09T08:14:02.235Z,1022.78
2018-07-09T08:15:11.381Z,1022.78
2018-07-09T08:16:20.242Z,1022.8
2018-07-09T08:17:29.379Z,1022.78
2018-07-09T08:18:38.244Z,1022.8
2018-07-09T08:19:47.227Z,1022.8
2018-07-09T08:20:56.072Z,1022.78
2018-07-09T08:22:04.952Z,1022.76
2018-07-09T08:23:14.089Z,1022.79
2018-07-09T08:24:23.233Z,1022.69
2018-07-09T08:25:32.871Z,1022.7
2018-07-09T08:26:42.650Z,1022.6
2018-07-09T08:27:51.518Z,1022.56
2018-07-09T08:29:00.380Z,1022.59
2018-07-09T08:30:09.244Z,1022.54
2018-07-09T08:31:18.319Z,1022.54
2018-07-09T08:32:28.131Z,1022.65
2018-07-09T08:33:37.043Z,1022.65
2018-07-09T08:34:45.917Z,1022.65
2018-07-09T08:35:54.775Z,1022.64
2018-07-09T08:37:03.643Z,1022.63
2018-07-09T08:38:12.505Z,1022.63
2018-07-09T08:39:21.373Z,1022.66
2018-07-09T08:40:30.238Z,1022.54
2018-07-09T08:41:39.102Z,1022.57
2018-07-09T08:42:48.116Z,1022.6
2018-07-09T08:43:56.981Z,1022.64
2018-07-09T08:45:06.136Z,1022.62
2018-07-09T08:46:15.276Z,1022.59
2018-07-09T08:47:24.171Z,1022.55
2018-07-09T08:48:34.053Z,1022.61
2018-07-09T08:49:42.914Z,1022.59
2018-07-09T08:50:52.057Z,1022.62
2018-07-09T08:52:00.920Z,1022.57
2018-07-09T08:53:09.784Z,1022.6
2018-07-09T08:54:18.805Z,1022.62
2018-07-09T08:55:27.968Z,1022.6
2018-07-09T08:56:37.108Z,1022.63
2018-07-09T08:57:45.970Z,1022.62
2018-07-09T08:58:54.835Z,1022.64
2018-07-09T09:00:03.749Z,1022.67
2018-07-09T09:01:12.614Z,1022.73
2018-07-09T09:02:21.477Z,1022.64
2018-07-09T09:03:30.341Z,1022.64
2018-07-09T09:04:39.483Z,1022.63
2018-07-09T09:05:48.698Z,1022.62
2018-07-09T09:06:57.562Z,1022.59
2018-07-09T09:08:06.425Z,1022.56
2018-07-09T09:09:15.289Z,1022.66
2018-07-09T09:10:24.162Z,1022.61
2018-07-09T09:11:34.123Z,1022.55
2018-07-09T09:12:42.975Z,1022.58
2018-07-09T09:13:51.838Z,1022.56
2018-07-09T09:15:00.742Z,1022.63
2018-07-09T09:16:09.566Z,1022.64
2018-07-09T09:17:18.786Z,1022.59
2018-07-09T09:18:27.644Z,1022.63
2018-07-09T09:19:36.788Z,1022.56
2018-07-09T09:20:45.660Z,1022.51
2018-07-09T09:21:54.530Z,1022.55
2018-07-09T09:23:03.821Z,1022.57
2018-07-09T09:24:12.684Z,1022.52
2018-07-09T09:25:21.547Z,1022.51
2018-07-09T09:26:30.410Z,1022.49
2018-07-09T09:27:39.275Z,1022.44
2018-07-09T09:28:48.140Z,1022.44
2018-07-09T09:29:57.008Z,1022.4
2018-07-09T09:31:05.886Z,1022.43
2018-07-09T09:32:15.116Z,1022.51
2018-07-09T09:33:23.979Z,1022.5
2018-07-09T09:34:32.993Z,1022.51
2018-07-09T09:35:41.858Z,1022.55
2018-07-09T09:36:50.725Z,1022.54
2018-07-09T09:37:59.589Z,1022.54
2018-07-09T09:39:09.029Z,1022.53
2018-07-09T09:40:17.897Z,1022.53
2018-07-09T09:41:26.761Z,1022.51
2018-07-09T09:42:35.624Z,1022.52
2018-07-09T09:43:44.764Z,1022.63
2018-07-09T09:44:53.631Z,1022.52
2018-07-09T09:46:02.646Z,1022.44
2018-07-09T09:47:11.511Z,1022.42
2018-07-09T09:48:20.648Z,1022.46
2018-07-09T09:49:29.551Z,1022.46
2018-07-09T09:50:38.653Z,1022.45
2018-07-09T09:51:47.523Z,1022.45
2018-07-09T09:52:56.663Z,1022.43
2018-07-09T09:54:05.533Z,1022.44
2018-07-09T09:55:15.231Z,1022.45
2018-07-09T09:56:24.091Z,1022.42
2018-07-09T09:57:33.057Z,1022.4
2018-07-09T09:58:42.203Z,1022.35
2018-07-09T09:59:51.070Z,1022.35
2018-07-09T10:01:00.213Z,1022.38
2018-07-09T10:02:09.365Z,1022.39
2018-07-09T10:03:18.230Z,1022.39
2018-07-09T10:04:27.094Z,1022.38
2018-07-09T10:05:36.239Z,1022.43
2018-07-09T10:06:45.107Z,1022.46
2018-07-09T10:07:54.530Z,1022.48
2018-07-09T10:09:03.583Z,1022.5
2018-07-09T10:10:12.689Z,1022.48
2018-07-09T10:11:21.559Z,1022.34
2018-07-09T10:12:30.430Z,1022.41
2018-07-09T10:13:39.295Z,1022.42
2018-07-09T10:14:48.160Z,1022.37
2018-07-09T10:15:57.024Z,1022.37
2018-07-09T10:17:05.888Z,1022.36
2018-07-09T10:18:14.754Z,1022.31
2018-07-09T10:19:23.894Z,1022.27
2018-07-09T10:20:33.109Z,1022.34
2018-07-09T10:21:42.256Z,1022.28
2018-07-09T10:22:51.210Z,1022.34
2018-07-09T10:24:00.524Z,1022.34
2018-07-09T10:25:09.392Z,1022.27
2018-07-09T10:26:18.536Z,1022.25
2018-07-09T10:27:27.400Z,1022.18
2018-07-09T10:28:36.267Z,1022.33
2018-07-09T10:29:45.131Z,1022.24
2018-07-09T10:30:54.271Z,1022.11
2018-07-09T10:32:03.486Z,1022.16
2018-07-09T10:33:12.354Z,1022.14
2018-07-09T10:34:21.222Z,1022.28
2018-07-09T10:35:30.089Z,1022.12
2018-07-09T10:36:38.956Z,1022.11
2018-07-09T10:37:47.824Z,1022.11
2018-07-09T10:38:56.693Z,1022.09
2018-07-09T10:40:05.559Z,1022.19
2018-07-09T10:41:14.428Z,1022.29
2018-07-09T10:42:23.294Z,1022.23
2018-07-09T10:43:32.309Z,1022.19
2018-07-09T10:44:41.453Z,1022.14
2018-07-09T10:45:50.608Z,1022.13
2018-07-09T10:46:59.528Z,1022.2
2018-07-09T10:48:08.643Z,1022.12
2018-07-09T10:49:18.500Z,1022.12
2018-07-09T10:50:27.648Z,1022.12
2018-07-09T10:51:36.512Z,1022.09
2018-07-09T10:52:45.380Z,1022.12
2018-07-09T10:53:54.251Z,1022.16
2018-07-09T10:55:03.118Z,1022.15
2018-07-09T10:56:11.986Z,1022.29
2018-07-09T10:57:20.851Z,1022.06
2018-07-09T10:58:29.993Z,1022.04
2018-07-09T10:59:38.858Z,1022.05
2018-07-09T11:00:47.931Z,1022.05
2018-07-09T11:01:57.037Z,1022.05
2018-07-09T11:03:05.903Z,1021.97
2018-07-09T11:04:14.771Z,1022.08
2018-07-09T11:05:23.638Z,1022.02
2018-07-09T11:06:32.654Z,1022.08
2018-07-09T11:07:41.520Z,1022.05
2018-07-09T11:08:50.387Z,1022.04
2018-07-09T11:09:59.256Z,1022.04
2018-07-09T11:11:08.124Z,1022.13
2018-07-09T11:12:17.145Z,1022.1
2018-07-09T11:13:26.008Z,1022.04
2018-07-09T11:14:34.877Z,1022.06
2018-07-09T11:15:43.736Z,1021.99
2018-07-09T11:16:52.606Z,1022.02
2018-07-09T11:18:01.846Z,1022.14
2018-07-09T11:19:10.714Z,1022.05
2018-07-09T11:20:19.580Z,1022.02
2018-07-09T11:21:28.445Z,1022.08
2018-07-09T11:22:37.627Z,1022.16
2018-07-09T11:23:46.593Z,1022.14
2018-07-09T11:24:55.738Z,1022.06
2018-07-09T11:26:04.881Z,1022.14
2018-07-09T11:27:13.747Z,1022.19
2018-07-09T11:28:22.892Z,1022.13
2018-07-09T11:29:31.858Z,1022.13
2018-07-09T11:30:40.726Z,1022.24
2018-07-09T11:31:49.870Z,1022.15
2018-07-09T11:32:58.736Z,1022.2
2018-07-09T11:34:07.605Z,1022.26
2018-07-09T11:35:16.746Z,1022.04
2018-07-09T11:36:25.677Z,1022.19
2018-07-09T11:37:34.476Z,1022.17
2018-07-09T11:38:43.344Z,1022.18
2018-07-09T11:39:52.487Z,1022.14
2018-07-09T11:41:01.909Z,1022.17
2018-07-09T11:42:10.817Z,1022.15
2018-07-09T11:43:20.027Z,1022.16
2018-07-09T11:44:28.895Z,1022.04
2018-07-09T11:45:37.761Z,1022.17
2018-07-09T11:46:46.778Z,1022.16
2018-07-09T11:47:55.643Z,1022.1
2018-07-09T11:49:04.508Z,1022.09
2018-07-09T11:50:13.389Z,1022.1
2018-07-09T11:51:22.248Z,1022.08
2018-07-09T11:52:31.391Z,1022.22
2018-07-09T11:53:40.535Z,1022.24
2018-07-09T11:54:49.401Z,1022.3
2018-07-09T11:55:58.265Z,1022.27
2018-07-09T11:57:07.130Z,1022.18
2018-07-09T11:58:16.280Z,1022.21
2018-07-09T11:59:25.147Z,1022.18
2018-07-09T12:00:34.017Z,1022.28
2018-07-09T12:01:42.885Z,1022.32
2018-07-09T12:02:51.754Z,1022.26
2018-07-09T12:04:00.720Z,1022.2
2018-07-09T12:05:09.869Z,1022.26
2018-07-09T12:06:19.017Z,1022.25
2018-07-09T12:07:27.885Z,1022.31
2018-07-09T12:08:36.754Z,1022.22
2018-07-09T12:09:45.621Z,1022.31
2018-07-09T12:10:54.491Z,1022.3
2018-07-09T12:12:03.355Z,1022.3
2018-07-09T12:13:12.221Z,1022.26
2018-07-09T12:14:21.089Z,1022.29
2018-07-09T12:15:29.956Z,1022.2
2018-07-09T12:16:38.824Z,1022.34
2018-07-09T12:17:47.692Z,1022.18
2018-07-09T12:18:56.559Z,1022.2
2018-07-09T12:20:05.427Z,1022.29
2018-07-09T12:21:14.456Z,1022.26
2018-07-09T12:22:23.872Z,1022.3
2018-07-09T12:23:32.737Z,1022.26
2018-07-09T12:24:41.604Z,1022.34
2018-07-09T12:25:50.475Z,1022.32
2018-07-09T14:28:00.279Z,1021.62
2018-07-09T14:29:09.492Z,1021.65
2018-07-09T14:30:18.417Z,1021.63
2018-07-09T14:31:27.344Z,1021.64
2018-07-09T14:32:36.419Z,1021.54
2018-07-09T14:33:45.626Z,1021.55
2018-07-09T14:34:54.551Z,1021.54
2018-07-09T14:36:03.775Z,1021.61
2018-07-09T14:37:12.982Z,1021.59
2018-07-09T14:38:21.967Z,1021.55
2018-07-09T14:39:30.894Z,1021.62
2018-07-09T14:40:39.816Z,1021.56
2018-07-09T14:41:48.742Z,1021.6
2018-07-09T14:42:57.669Z,1021.58
2018-07-09T14:44:06.751Z,1021.58
2018-07-09T14:45:15.689Z,1021.5
2018-07-09T14:46:25.110Z,1021.53
2018-07-09T14:47:34.037Z,1021.59
2018-07-09T14:48:42.974Z,1021.51
2018-07-09T14:49:52.464Z,1021.52
2018-07-09T14:51:01.388Z,1021.58
2018-07-09T14:52:10.315Z,1021.58
2018-07-09T14:53:19.243Z,1021.55
2018-07-09T14:54:28.172Z,1021.47
2018-07-09T14:55:37.432Z,1021.5
2018-07-09T14:56:46.357Z,1021.47
2018-07-09T14:57:55.282Z,1021.51
2018-07-09T14:59:04.503Z,1021.51
2018-07-09T15:00:13.427Z,1021.53
2018-07-09T15:01:22.402Z,1021.47
2018-07-09T15:02:31.333Z,1021.43
2018-07-09T15:03:40.255Z,1021.48
2018-07-09T15:04:49.462Z,1021.49
2018-07-09T15:05:58.385Z,1021.53
2018-07-09T15:07:07.413Z,1021.56
2018-07-09T15:08:16.337Z,1021.47
2018-07-09T15:09:25.261Z,1021.47
2018-07-09T15:10:34.493Z,1021.5
2018-07-09T15:11:43.417Z,1021.46
2018-07-09T15:12:52.673Z,1021.38
2018-07-09T15:14:01.595Z,1021.41
2018-07-09T15:15:10.521Z,1021.39
2018-07-09T15:16:19.727Z,1021.39
2018-07-09T15:17:28.653Z,1021.32
2018-07-09T15:18:38.352Z,1021.37
2018-07-09T15:19:47.277Z,1021.35
2018-07-09T15:20:56.202Z,1021.31
2018-07-09T15:22:05.488Z,1021.3
2018-07-09T15:23:14.413Z,1021.25
2018-07-09T15:24:23.619Z,1021.17
2018-07-09T15:25:32.543Z,1021.19
2018-07-09T15:26:41.468Z,1021.14
2018-07-09T15:27:50.392Z,1021.15
2018-07-09T15:28:59.320Z,1021.08
2018-07-09T15:30:08.595Z,1021.08
2018-07-09T15:31:17.519Z,1021.09
2018-07-09T15:32:26.442Z,1021.14
2018-07-09T15:33:35.366Z,1021.08
2018-07-09T15:34:44.290Z,1021.03
2018-07-09T15:35:53.493Z,1021.01
2018-07-09T22:26:15.655Z,1018.61
2018-07-09T22:27:24.792Z,1018.58
2018-07-09T22:28:33.944Z,1018.57
2018-07-09T22:29:42.800Z,1018.63
2018-07-09T22:30:51.810Z,1018.58
2018-07-09T22:32:00.946Z,1018.61
2018-07-09T22:33:09.806Z,1018.6
2018-07-09T22:34:18.664Z,1018.57
2018-07-09T22:35:27.526Z,1018.54
2018-07-09T22:36:36.809Z,1018.53
2018-07-09T22:37:46.228Z,1018.51
2018-07-09T22:38:55.087Z,1018.48
2018-07-09T22:40:03.972Z,1018.48
2018-07-09T22:41:13.225Z,1018.51
2018-07-09T22:42:22.084Z,1018.55
2018-07-09T22:43:30.941Z,1018.57
2018-07-09T22:44:40.360Z,1018.56
2018-07-09T22:45:49.522Z,1018.59
2018-07-09T22:46:58.384Z,1018.63
2018-07-09T22:48:07.342Z,1018.65
2018-07-09T22:49:16.206Z,1018.69